Akiachak, Alaska
Current Conditions -  °F | °C
As of 4:56 AM on Friday 24 Oct 2014 (Local Time) from PFKW Reporting Station
Clear Clear  
Wind Chill: -6°   Ceiling: Unl
Heat Index: -3°   Visibility: 10mi
Dew Point: -4°   Wind: 5mph
Humidity: 96%   Direction: 280°W
Pressure: 29.89"   Gusts: NA
Location:  60.91°N, 161.44°W
Report Text: PFKW 241256Z AUTO 28004KT 10SM CLR M03/M04 A2989 RMK AO2 SLP124 T10331039 FZRANO
Loading
Personal Weather Stations






























Interactive Weather Map
Tropical Storm Tracking
New forecast layout! Learn more

10-Day Weather Forecast

Advertisements
Track Severe Weather on mobile